Time;durP1;ratioP1;P1;durP2;ratioP2;P2;SDS_P1;SDS_P2;PMS_P1;PMS_P2;Temp;Humidity;BMP_temperature;BMP_pressure;BME280_temperature;BME280_humidity;BME280_pressure;Samples;Min_cycle;Max_cycle;Signal;HPM_P1;HPM_P2
2024/04/25 00:02:09;;;;;;;39.40;25.90;;;;;;;1.11;70.84;100249.00;108702;1260;138464;-63
2024/04/25 00:04:35;;;;;;;37.20;24.90;;;;;;;1.09;70.84;100241.61;108825;1260;75622;-62
2024/04/25 00:07:02;;;;;;;39.40;25.20;;;;;;;1.06;71.04;100239.75;108684;1260;138905;-62
2024/04/25 00:09:29;;;;;;;39.00;24.90;;;;;;;1.04;71.13;100238.75;108782;1260;72130;-63
2024/04/25 00:11:55;;;;;;;40.10;24.70;;;;;;;1.02;71.12;100237.44;108656;1260;139010;-63
2024/04/25 00:14:22;;;;;;;43.70;24.80;;;;;;;1.01;71.26;100236.51;108729;1260;61009;-64
2024/04/25 00:16:49;;;;;;;45.30;25.30;;;;;;;1.00;71.22;100236.46;108827;1260;76653;-63
2024/04/25 00:19:15;;;;;;;37.90;24.90;;;;;;;0.99;71.51;100237.11;108696;1260;139246;-63
2024/04/25 00:21:42;;;;;;;38.60;25.30;;;;;;;0.98;71.56;100233.77;108798;1260;71821;-63
2024/04/25 00:24:08;;;;;;;37.20;24.00;;;;;;;0.98;71.50;100234.98;108643;1260;139977;-63
2024/04/25 00:26:35;;;;;;;40.50;23.30;;;;;;;0.98;71.70;100236.72;108784;1260;60558;-64
2024/04/25 00:29:01;;;;;;;36.30;24.10;;;;;;;0.97;71.72;100229.58;108777;1260;77463;-63
2024/04/25 00:31:28;;;;;;;38.70;24.60;;;;;;;0.97;71.80;100231.81;108647;1260;138864;-63
2024/04/25 00:33:54;;;;;;;39.00;23.70;;;;;;;0.97;71.79;100234.05;108718;1265;71551;-63
2024/04/25 00:36:21;;;;;;;39.50;24.20;;;;;;;0.96;71.82;100232.08;108619;1260;138779;-63
2024/04/25 00:38:47;;;;;;;40.80;24.90;;;;;;;0.94;71.88;100233.02;108742;1260;61810;-64
2024/04/25 00:41:14;;;;;;;36.40;24.20;;;;;;;0.92;71.95;100235.19;108730;1260;77323;-63
2024/04/25 00:43:41;;;;;;;40.70;26.40;;;;;;;0.90;72.02;100234.56;108670;1260;139516;-62
2024/04/25 00:46:07;;;;;;;36.20;22.70;;;;;;;0.89;72.24;100234.30;108688;1260;72080;-63
2024/04/25 00:48:34;;;;;;;39.80;24.40;;;;;;;0.88;72.30;100233.39;108581;1260;139757;-63
2024/04/25 00:51:03;;;;;;;37.60;23.40;;;;;;;0.88;72.40;100232.88;108775;1260;60568;-63
2024/04/25 00:53:30;;;;;;;37.10;22.80;;;;;;;0.88;72.37;100234.25;108654;1260;75960;-63
2024/04/25 00:55:56;;;;;;;33.50;22.50;;;;;;;0.88;72.47;100230.12;108652;1260;140834;-63
2024/04/25 00:58:23;;;;;;;37.20;23.00;;;;;;;0.88;72.58;100229.79;108732;1260;70973;-63
2024/04/25 01:00:49;;;;;;;40.30;23.60;;;;;;;0.88;72.59;100231.47;108626;1259;138953;-63
2024/04/25 01:03:17;;;;;;;35.00;24.10;;;;;;;0.87;72.62;100231.63;108826;1260;62026;-63
2024/04/25 01:05:44;;;;;;;42.40;25.40;;;;;;;0.86;72.79;100229.83;108692;1260;77289;-63
2024/04/25 01:08:14;;;;;;;37.80;22.70;;;;;;;0.85;72.77;100226.48;108633;1260;138889;-63
2024/04/25 01:10:41;;;;;;;39.50;24.10;;;;;;;0.85;72.90;100226.64;108785;1260;72121;-63
2024/04/25 01:13:07;;;;;;;34.30;23.30;;;;;;;0.84;72.83;100228.33;108681;1260;139209;-63
2024/04/25 01:15:34;;;;;;;36.00;23.70;;;;;;;0.83;72.78;100224.49;108792;1260;63905;-63
2024/04/25 01:18:01;;;;;;;36.70;23.80;;;;;;;0.82;72.93;100219.92;108664;1260;138644;-63
2024/04/25 01:20:27;;;;;;;38.20;24.50;;;;;;;0.81;73.03;100221.95;108811;1260;69407;-63
2024/04/25 01:22:54;;;;;;;38.00;24.30;;;;;;;0.80;73.05;100217.91;108852;1260;71656;-63
2024/04/25 01:25:21;;;;;;;40.70;25.30;;;;;;;0.79;73.09;100219.05;108675;1260;139156;-63
2024/04/25 01:27:47;;;;;;;42.90;26.90;;;;;;;0.76;73.09;100217.22;108631;1260;67639;-64
2024/04/25 01:30:14;;;;;;;39.50;26.10;;;;;;;0.73;73.32;100215.85;108520;1260;139332;-64
2024/04/25 01:32:40;;;;;;;43.70;26.10;;;;;;;0.72;73.32;100216.94;108683;1260;65422;-64
2024/04/25 01:35:08;;;;;;;37.70;24.50;;;;;;;0.70;73.37;100214.97;108803;1260;72835;-63
2024/04/25 01:37:34;;;;;;;43.30;25.50;;;;;;;0.68;73.49;100213.66;108680;1260;139173;-63
2024/04/25 01:40:01;;;;;;;41.00;25.10;;;;;;;0.69;73.55;100217.47;108799;1260;60807;-64
2024/04/25 01:42:28;;;;;;;38.10;23.40;;;;;;;0.68;73.72;100217.42;108700;1260;139973;-63
2024/04/25 01:44:54;;;;;;;38.40;23.40;;;;;;;0.68;73.62;100215.69;108690;1260;66470;-64
2024/04/25 01:47:21;;;;;;;36.00;24.90;;;;;;;0.67;73.81;100218.07;108695;1260;73778;-63
2024/04/25 01:49:47;;;;;;;36.60;23.60;;;;;;;0.67;73.94;100216.16;108703;1260;151268;-63
2024/04/25 01:52:14;;;;;;;38.40;25.00;;;;;;;0.67;74.10;100218.42;108762;1263;61401;-63
2024/04/25 01:54:40;;;;;;;38.60;24.40;;;;;;;0.66;74.22;100217.34;108663;1260;139946;-63
2024/04/25 01:57:07;;;;;;;39.20;24.40;;;;;;;0.66;74.07;100218.70;108805;1260;65591;-63
2024/04/25 01:59:33;;;;;;;36.90;24.50;;;;;;;0.65;74.18;100212.23;108811;1260;72820;-63
2024/04/25 02:02:00;;;;;;;39.10;23.90;;;;;;;0.64;74.34;100215.67;108695;1260;139037;-63
2024/04/25 02:04:27;;;;;;;36.30;24.00;;;;;;;0.65;74.46;100215.00;108783;1260;60625;-63
2024/04/25 02:06:53;;;;;;;42.70;24.80;;;;;;;0.64;74.27;100213.78;108692;1260;139827;-63
2024/04/25 02:09:20;;;;;;;35.20;24.70;;;;;;;0.64;74.51;100215.65;108783;1262;66884;-63
2024/04/25 02:11:46;;;;;;;39.50;24.20;;;;;;;0.64;74.51;100213.23;108721;1260;73718;-63
2024/04/25 02:14:13;;;;;;;36.20;23.80;;;;;;;0.64;74.78;100216.50;108723;1259;138404;-63
2024/04/25 02:16:39;;;;;;;36.50;24.50;;;;;;;0.62;74.74;100215.71;108806;1260;60988;-63
2024/04/25 02:19:06;;;;;;;35.60;24.40;;;;;;;0.61;74.71;100218.95;108596;1264;138387;-63
2024/04/25 02:27:02;;;;;;;41.80;24.00;;;;;;;0.53;74.74;100221.08;108756;1260;60859;-60
2024/04/25 02:29:29;;;;;;;37.90;25.70;;;;;;;0.51;75.07;100217.73;108786;1260;60700;-59
2024/04/25 02:31:55;;;;;;;36.70;25.50;;;;;;;0.49;75.15;100217.25;108551;1260;238607;-59
2024/04/25 02:34:22;;;;;;;39.80;25.80;;;;;;;0.48;75.17;100216.80;108704;1267;67704;-59
2024/04/25 02:36:48;;;;;;;34.60;23.70;;;;;;;0.45;75.10;100216.35;108681;1260;139436;-60
2024/04/25 02:39:15;;;;;;;35.40;24.40;;;;;;;0.44;75.27;100212.98;108754;1260;60851;-60
2024/04/25 02:41:41;;;;;;;39.20;25.60;;;;;;;0.43;75.26;100214.44;108832;1260;60738;-60
2024/04/25 02:44:08;;;;;;;36.90;25.00;;;;;;;0.43;75.46;100215.02;108703;1261;139559;-60
2024/04/25 02:46:35;;;;;;;35.10;24.60;;;;;;;0.44;75.56;100214.54;108785;1260;65284;-61
2024/04/25 02:49:01;;;;;;;35.10;23.90;;;;;;;0.44;75.73;100215.05;108684;1260;139540;-60
2024/04/25 02:51:28;;;;;;;34.20;24.30;;;;;;;0.45;75.73;100213.21;108754;1260;60962;-61
2024/04/25 02:53:54;;;;;;;40.50;24.50;;;;;;;0.45;75.83;100214.39;108686;1260;138935;-60
2024/04/25 02:56:21;;;;;;;35.00;23.80;;;;;;;0.45;75.89;100214.23;108793;1260;76461;-60
2024/04/25 02:58:47;;;;;;;38.00;24.40;;;;;;;0.44;75.94;100217.82;108803;1261;66063;-60
2024/04/25 03:01:14;;;;;;;35.80;25.20;;;;;;;0.44;76.02;100216.10;108655;1260;139177;-61
2024/04/25 03:03:40;;;;;;;35.10;24.40;;;;;;;0.45;76.10;100212.67;108789;1260;61107;-60
2024/04/25 03:06:07;;;;;;;36.40;23.90;;;;;;;0.45;76.06;100212.70;108663;1265;139354;-60
2024/04/25 03:08:33;;;;;;;37.80;24.80;;;;;;;0.45;76.06;100211.33;108782;1260;61619;-60
2024/04/25 03:11:03;;;;;;;34.10;24.50;;;;;;;0.45;76.24;100212.36;108830;1259;66424;-60
2024/04/25 03:13:30;;;;;;;38.40;25.10;;;;;;;0.45;76.24;100213.71;108643;1260;142770;-60
2024/04/25 03:16:01;;;;;;;37.90;24.00;;;;;;;0.47;76.29;100211.41;108780;1261;60894;-60
2024/04/25 03:18:28;;;;;;;38.60;24.30;;;;;;;0.48;76.38;100212.32;108591;1260;139093;-60
2024/04/25 03:21:02;;;;;;;34.60;23.60;;;;;;;0.48;76.38;100210.10;108807;1260;76235;-60
2024/04/25 03:23:30;;;;;;;33.30;23.40;;;;;;;0.50;76.54;100212.31;108762;1261;65189;-60
2024/04/25 03:25:57;;;;;;;36.70;23.90;;;;;;;0.53;76.54;100208.99;108733;1260;138880;-60
2024/04/25 03:28:23;;;;;;;36.80;22.80;;;;;;;0.56;76.58;100211.59;108778;1260;60695;-61
2024/04/25 03:30:50;;;;;;;36.40;23.40;;;;;;;0.59;76.50;100210.22;108679;1264;139167;-61
2024/04/25 03:33:16;;;;;;;33.90;23.90;;;;;;;0.65;76.62;100212.58;108840;1260;75352;-61
2024/04/25 03:35:43;;;;;;;37.10;23.60;;;;;;;0.69;76.67;100209.38;108809;1260;64859;-61
2024/04/25 03:38:09;;;;;;;31.40;23.20;;;;;;;0.76;76.76;100210.98;108717;1260;138591;-61
2024/04/25 03:40:37;;;;;;;32.60;23.30;;;;;;;0.82;76.52;100210.79;108770;1260;61609;-61
2024/04/25 03:43:06;;;;;;;36.20;24.20;;;;;;;0.88;76.71;100214.05;108490;1260;139615;-61
2024/04/25 03:45:33;;;;;;;32.50;22.10;;;;;;;0.95;76.63;100212.20;108756;1260;75701;-61
2024/04/25 03:48:00;;;;;;;33.50;21.40;;;;;;;1.02;76.45;100215.83;108539;1266;139358;-63
2024/04/25 03:50:26;;;;;;;28.90;21.00;;;;;;;1.07;76.45;100222.86;108787;1260;72728;-63
2024/04/25 03:52:53;;;;;;;30.70;20.90;;;;;;;1.16;76.57;100224.57;108780;1260;60978;-63
2024/04/25 03:55:19;;;;;;;26.90;19.90;;;;;;;1.31;76.40;100227.24;108656;1264;139432;-63
2024/04/25 03:57:46;;;;;;;26.10;19.80;;;;;;;1.38;76.22;100226.77;108774;1261;75827;-63
2024/04/25 04:00:13;;;;;;;26.70;19.30;;;;;;;1.45;75.98;100224.38;108643;1260;139409;-63
2024/04/25 04:02:39;;;;;;;27.30;18.70;;;;;;;1.54;76.05;100228.10;108727;1261;71842;-63
2024/04/25 04:05:06;;;;;;;24.80;19.00;;;;;;;1.74;76.34;100230.05;108761;1266;60865;-63
2024/04/25 04:07:33;;;;;;;21.90;18.30;;;;;;;2.15;76.74;100229.86;108645;1260;139741;-63
2024/04/25 04:09:59;;;;;;;25.60;18.00;;;;;;;2.63;76.50;100235.84;108738;1262;75166;-63
2024/04/25 04:12:26;;;;;;;26.00;18.90;;;;;;;3.16;76.63;100231.08;108644;1265;139692;-63
2024/04/25 04:14:52;;;;;;;23.00;17.80;;;;;;;3.95;76.53;100221.23;108780;1260;73607;-63
2024/04/25 04:17:19;;;;;;;24.00;17.30;;;;;;;4.85;76.22;100213.61;108821;1260;60447;-63
2024/04/25 04:19:45;;;;;;;21.00;16.50;;;;;;;5.98;75.78;100207.16;108630;1260;138466;-63
2024/04/25 04:22:12;;;;;;;25.30;18.30;;;;;;;7.12;74.81;100204.77;108713;1264;77568;-63
2024/04/25 04:24:38;;;;;;;20.00;15.80;;;;;;;7.81;72.45;100201.85;108670;1263;138473;-64
2024/04/25 04:27:05;;;;;;;19.60;15.40;;;;;;;8.24;70.99;100203.70;108779;1260;73781;-63
2024/04/25 04:29:31;;;;;;;19.40;16.00;;;;;;;8.70;69.65;100201.52;108798;1260;67647;-63
2024/04/25 04:31:58;;;;;;;16.70;15.00;;;;;;;9.20;68.66;100198.11;108745;1261;138328;-65
2024/04/25 04:34:25;;;;;;;19.30;15.00;;;;;;;9.76;67.66;100194.86;108721;1264;75757;-64
2024/04/25 04:36:51;;;;;;;17.90;16.00;;;;;;;9.98;65.88;100195.80;108652;1260;138774;-65
2024/04/25 04:39:18;;;;;;;17.30;14.70;;;;;;;9.45;63.87;100202.14;108704;1260;70720;-65
2024/04/25 04:41:44;;;;;;;16.00;14.30;;;;;;;8.69;63.05;100207.25;108799;1261;60563;-65
2024/04/25 04:44:12;;;;;;;18.30;14.20;;;;;;;7.99;62.98;100209.33;108700;1261;138478;-65
2024/04/25 04:46:39;;;;;;;17.90;15.00;;;;;;;7.50;63.29;100211.46;108773;1264;76248;-65
2024/04/25 04:49:06;;;;;;;18.40;14.50;;;;;;;7.27;63.70;100210.27;108652;1263;138399;-65
2024/04/25 04:51:32;;;;;;;18.70;14.90;;;;;;;7.18;63.85;100211.77;108747;1261;72846;-65
2024/04/25 04:53:59;;;;;;;19.90;16.60;;;;;;;6.95;63.29;100211.58;108632;1260;139101;-64
2024/04/25 04:56:25;;;;;;;19.10;15.80;;;;;;;6.54;63.17;100218.29;108720;1262;60602;-65
2024/04/25 04:58:54;;;;;;;19.90;15.30;;;;;;;6.17;63.52;100214.28;108780;1264;76064;-63
2024/04/25 05:01:20;;;;;;;19.80;15.30;;;;;;;6.11;64.37;100217.04;108675;1260;139397;-64
2024/04/25 05:03:47;;;;;;;19.30;15.10;;;;;;;6.95;66.21;100214.36;108754;1266;73413;-65
2024/04/25 05:06:13;;;;;;;18.30;14.60;;;;;;;8.46;66.72;100204.06;108663;1260;139429;-65
2024/04/25 05:08:40;;;;;;;14.70;13.20;;;;;;;10.14;66.14;100202.02;108785;1260;60848;-65
2024/04/25 05:11:08;;;;;;;16.20;14.20;;;;;;;11.63;64.45;100198.32;108823;1261;76373;-66
2024/04/25 05:13:34;;;;;;;15.90;13.80;;;;;;;12.94;63.28;100203.05;108660;1260;139135;-66
2024/04/25 05:16:01;;;;;;;16.40;14.30;;;;;;;14.14;61.67;100205.52;108779;1260;71705;-64
2024/04/25 05:18:28;;;;;;;14.70;13.20;;;;;;;14.98;59.62;100201.15;108679;1261;140073;-65
2024/04/25 05:20:54;;;;;;;16.40;13.70;;;;;;;15.60;58.36;100196.89;108752;1261;60925;-66
2024/04/25 05:23:21;;;;;;;15.60;12.90;;;;;;;15.41;55.66;100202.98;108823;1260;61255;-66
2024/04/25 05:25:49;;;;;;;16.70;13.30;;;;;;;14.57;53.92;100206.28;108697;1260;139104;-65
2024/04/25 05:28:16;;;;;;;15.80;13.30;;;;;;;13.69;53.53;100210.00;108776;1260;72422;-66
2024/04/25 05:30:43;;;;;;;15.10;13.30;;;;;;;12.79;53.21;100215.64;108689;1260;140390;-66
2024/04/25 05:33:09;;;;;;;14.70;12.80;;;;;;;12.12;53.95;100215.42;108752;1260;63603;-66
2024/04/25 05:35:36;;;;;;;14.90;13.40;;;;;;;11.52;53.85;100220.15;108735;1263;75571;-66
2024/04/25 05:38:03;;;;;;;18.00;13.80;;;;;;;10.92;54.30;100224.23;108662;1261;139144;-66
2024/04/25 05:40:29;;;;;;;16.30;13.50;;;;;;;10.40;54.73;100230.07;108794;1261;72998;-66
2024/04/25 05:42:56;;;;;;;15.20;13.40;;;;;;;9.98;55.31;100230.87;108625;1260;138700;-66
2024/04/25 05:45:23;;;;;;;15.90;13.90;;;;;;;9.59;55.23;100232.91;108615;1266;60872;-66
2024/04/25 05:47:50;;;;;;;15.20;13.60;;;;;;;9.03;55.56;100235.02;108706;1260;60677;-66
2024/04/25 05:50:16;;;;;;;17.40;13.70;;;;;;;8.68;56.06;100231.23;108811;1260;66491;-66
2024/04/25 05:52:43;;;;;;;17.40;13.20;;;;;;;8.35;56.40;100232.11;108747;1261;73649;-65
2024/04/25 05:55:09;;;;;;;16.50;14.60;;;;;;;8.08;57.03;100236.13;108582;1264;138785;-66
2024/04/25 05:57:36;;;;;;;16.80;14.20;;;;;;;7.93;57.49;100240.43;108800;1261;61454;-66
2024/04/25 06:00:03;;;;;;;18.40;15.10;;;;;;;7.76;57.59;100240.67;108644;1260;139154;-65
2024/04/25 06:02:30;;;;;;;19.30;15.50;;;;;;;7.67;58.25;100239.20;108809;1260;66318;-65
2024/04/25 06:04:56;;;;;;;18.00;15.20;;;;;;;7.61;58.50;100237.45;108756;1260;72888;-65
2024/04/25 06:07:23;;;;;;;20.50;15.70;;;;;;;7.49;58.62;100237.63;108585;1264;138894;-66
2024/04/25 06:09:49;;;;;;;22.80;16.10;;;;;;;7.55;59.38;100238.67;108766;1260;60646;-67
2024/04/25 06:12:16;;;;;;;21.90;16.70;;;;;;;7.68;59.52;100237.29;108700;1260;139734;-65
2024/04/25 06:14:43;;;;;;;22.10;15.60;;;;;;;7.73;59.61;100242.36;108800;1261;67388;-66
2024/04/25 06:17:09;;;;;;;24.00;16.00;;;;;;;7.78;59.70;100244.75;108708;1260;71532;-66
2024/04/25 06:19:36;;;;;;;22.50;15.80;;;;;;;7.81;59.68;100245.36;108676;1260;138820;-66
2024/04/25 06:22:02;;;;;;;23.60;17.90;;;;;;;7.87;59.92;100243.06;108682;1261;60970;-67
2024/04/25 06:24:29;;;;;;;22.00;15.90;;;;;;;7.91;59.70;100246.86;108682;1260;138733;-66
2024/04/25 06:26:55;;;;;;;25.60;16.00;;;;;;;7.95;59.73;100248.70;108776;1260;65120;-66
2024/04/25 06:29:22;;;;;;;22.80;16.30;;;;;;;7.98;59.64;100248.42;108879;1260;71044;-66
2024/04/25 06:31:49;;;;;;;25.70;18.60;;;;;;;7.94;59.61;100249.92;108708;1260;138787;-66
2024/04/25 06:34:15;;;;;;;27.10;18.50;;;;;;;7.90;59.66;100252.58;108781;1260;60868;-65
2024/04/25 06:36:42;;;;;;;26.80;15.60;;;;;;;7.92;59.75;100253.52;108695;1261;138444;-65
2024/04/25 06:39:09;;;;;;;24.60;16.10;;;;;;;7.94;59.70;100257.27;108794;1261;66402;-66
2024/04/25 06:41:36;;;;;;;20.80;15.30;;;;;;;7.96;59.74;100261.14;108788;1260;72679;-66
2024/04/25 06:44:04;;;;;;;23.00;15.60;;;;;;;8.01;59.84;100262.51;108664;1276;139167;-66
2024/04/25 06:46:30;;;;;;;22.90;15.50;;;;;;;8.09;59.89;100262.02;108813;1260;61748;-66
2024/04/25 06:48:57;;;;;;;20.90;14.20;;;;;;;8.14;59.76;100266.52;108695;1260;139178;-66
2024/04/25 06:51:24;;;;;;;20.10;15.00;;;;;;;8.20;59.62;100264.77;108685;1260;65556;-66
2024/04/25 06:53:51;;;;;;;16.20;13.40;;;;;;;8.25;59.20;100264.89;108587;1260;138424;-65
2024/04/25 06:56:17;;;;;;;15.30;13.10;;;;;;;8.26;58.93;100262.81;108796;1260;60817;-66
2024/04/25 06:58:44;;;;;;;15.90;11.90;;;;;;;8.23;58.38;100266.59;108736;1264;61103;-66
2024/04/25 07:01:11;;;;;;;15.70;12.30;;;;;;;8.24;58.45;100268.02;108649;1260;138360;-66
2024/04/25 07:03:38;;;;;;;15.50;12.80;;;;;;;8.32;58.37;100266.66;108685;1260;65222;-66
2024/04/25 07:06:06;;;;;;;16.40;12.30;;;;;;;8.38;58.00;100268.22;108615;1261;138669;-66
2024/04/25 07:08:32;;;;;;;17.80;12.50;;;;;;;8.37;57.72;100267.47;108803;1260;60570;-66
2024/04/25 07:10:59;;;;;;;16.70;12.90;;;;;;;8.42;57.77;100269.55;108774;1260;60615;-65
2024/04/25 07:13:26;;;;;;;17.20;13.70;;;;;;;8.46;57.67;100271.59;108674;1259;139521;-65
2024/04/25 07:15:53;;;;;;;17.40;12.40;;;;;;;8.46;57.22;100272.99;108804;1260;66447;-65
2024/04/25 07:18:20;;;;;;;19.60;14.50;;;;;;;8.36;56.98;100273.41;108664;1261;139532;-65
2024/04/25 07:20:46;;;;;;;11.40;9.20;;;;;;;8.37;56.64;100272.55;108822;1260;60966;-67
2024/04/25 07:23:13;;;;;;;13.80;10.10;;;;;;;8.36;56.11;100268.69;108799;1259;60825;-66
2024/04/25 07:25:42;;;;;;;14.80;11.70;;;;;;;8.40;56.37;100271.77;108650;1260;138579;-66
2024/04/25 07:28:08;;;;;;;16.00;10.80;;;;;;;8.46;56.40;100274.55;108805;1260;67668;-66
2024/04/25 07:30:35;;;;;;;13.50;10.10;;;;;;;8.48;55.74;100274.44;108649;1261;138988;-65
2024/04/25 07:33:02;;;;;;;15.50;9.70;;;;;;;8.47;55.50;100276.17;108762;1259;60825;-66
2024/04/25 07:35:28;;;;;;;11.20;8.50;;;;;;;8.53;55.28;100276.14;108826;1260;60832;-66
2024/04/25 07:37:55;;;;;;;9.40;6.80;;;;;;;8.60;54.69;100275.96;108678;1260;147228;-66
2024/04/25 07:40:22;;;;;;;7.50;5.50;;;;;;;8.65;53.92;100282.92;108784;1263;65464;-66
2024/04/25 07:42:48;;;;;;;6.00;3.60;;;;;;;8.67;52.96;100284.71;108689;1259;138267;-66
2024/04/25 07:45:15;;;;;;;10.50;4.10;;;;;;;8.69;52.23;100283.19;108767;1259;60794;-66
2024/04/25 07:47:41;;;;;;;7.60;4.20;;;;;;;8.73;51.93;100280.85;108868;1260;60840;-66
2024/04/25 07:50:08;;;;;;;5.00;4.10;;;;;;;8.74;51.08;100277.02;108695;1260;137859;-65
2024/04/25 07:52:37;;;;;;;8.10;4.50;;;;;;;8.69;50.43;100277.61;108801;1260;67526;-66
2024/04/25 07:55:04;;;;;;;5.70;4.00;;;;;;;8.66;50.23;100279.98;108662;1259;137976;-66
2024/04/25 07:57:31;;;;;;;5.90;4.90;;;;;;;8.61;50.07;100276.33;108784;1260;61038;-66
2024/04/25 07:59:57;;;;;;;7.50;5.00;;;;;;;8.60;50.15;100274.21;108689;1260;138378;-66
2024/04/25 08:02:24;;;;;;;6.30;5.30;;;;;;;8.62;49.83;100279.70;108839;1260;84017;-66
2024/04/25 08:04:51;;;;;;;6.00;4.60;;;;;;;8.63;49.78;100274.81;108775;1260;63993;-66
2024/04/25 08:07:17;;;;;;;7.10;4.70;;;;;;;8.68;49.69;100277.23;108700;1260;138508;-66
2024/04/25 08:09:44;;;;;;;6.20;4.50;;;;;;;8.72;49.52;100276.79;108782;1260;63998;-66
2024/04/25 08:12:11;;;;;;;6.70;5.20;;;;;;;8.77;49.61;100276.20;108682;1260;138330;-66
2024/04/25 08:14:40;;;;;;;11.20;5.40;;;;;;;8.86;49.85;100275.22;108824;1260;76518;-67
2024/04/25 08:17:06;;;;;;;7.10;5.20;;;;;;;8.96;49.64;100272.13;108584;1260;66142;-66
2024/04/25 08:19:33;;;;;;;7.20;4.60;;;;;;;9.05;49.72;100276.71;108359;1260;138368;-66
2024/04/25 08:22:00;;;;;;;7.20;5.20;;;;;;;9.16;49.69;100276.09;108770;1260;60841;-66
2024/04/25 08:24:26;;;;;;;6.90;4.90;;;;;;;9.28;49.62;100276.73;108662;1260;138535;-66
2024/04/25 08:26:53;;;;;;;9.90;6.50;;;;;;;9.36;49.28;100269.89;108813;1260;75441;-66
2024/04/25 08:29:21;;;;;;;11.60;5.60;;;;;;;9.42;49.38;100273.16;108817;1260;65041;-67
2024/04/25 08:31:48;;;;;;;7.20;5.00;;;;;;;9.48;49.53;100273.84;108645;1260;140424;-67
2024/04/25 08:34:16;;;;;;;6.60;5.00;;;;;;;9.55;49.16;100271.18;108787;1260;60639;-66
2024/04/25 08:36:42;;;;;;;6.40;4.90;;;;;;;9.61;49.25;100275.52;108651;1260;138701;-66
2024/04/25 08:39:09;;;;;;;5.70;4.60;;;;;;;9.67;49.13;100268.80;108764;1260;77323;-67
2024/04/25 08:41:36;;;;;;;6.10;5.00;;;;;;;9.72;49.01;100270.46;108801;1263;67895;-66
2024/04/25 08:44:03;;;;;;;7.60;5.00;;;;;;;9.77;48.67;100268.11;108635;1260;138617;-66
2024/04/25 08:46:30;;;;;;;7.10;5.30;;;;;;;9.80;48.56;100264.52;108768;1260;60970;-66
2024/04/25 08:48:57;;;;;;;7.20;5.70;;;;;;;9.80;48.17;100266.08;108496;1260;139619;-66
2024/04/25 08:51:25;;;;;;;7.60;5.50;;;;;;;9.79;48.16;100266.59;108712;1260;74599;-66
2024/04/25 08:53:54;;;;;;;6.70;5.50;;;;;;;9.79;47.89;100265.70;108616;1260;139280;-65
2024/04/25 08:56:22;;;;;;;6.60;5.10;;;;;;;9.77;47.99;100262.71;108642;1260;73688;-65
2024/04/25 08:58:48;;;;;;;6.00;5.00;;;;;;;9.83;48.09;100269.83;108626;1259;60969;-66
2024/04/25 09:01:15;;;;;;;10.70;5.10;;;;;;;9.91;48.06;100267.52;108642;1260;138094;-65
2024/04/25 09:03:43;;;;;;;8.20;5.30;;;;;;;9.98;47.89;100274.16;108781;1260;76471;-65
2024/04/25 09:06:11;;;;;;;5.70;4.70;;;;;;;9.96;47.27;100267.63;108513;1260;138138;-65
2024/04/25 09:08:38;;;;;;;7.10;5.30;;;;;;;9.93;47.30;100266.36;108785;1259;72979;-65
2024/04/25 09:11:04;;;;;;;5.90;4.60;;;;;;;9.97;47.24;100265.55;108768;1260;61131;-65
2024/04/25 09:13:31;;;;;;;5.70;4.90;;;;;;;10.05;47.33;100264.83;108694;1260;138133;-65
2024/04/25 09:16:01;;;;;;;5.20;4.60;;;;;;;10.16;47.29;100264.52;108755;1260;77452;-65
2024/04/25 09:18:30;;;;;;;9.10;6.80;;;;;;;10.24;46.55;100262.55;108692;1260;138897;-66
2024/04/25 09:20:57;;;;;;;9.00;4.90;;;;;;;10.26;46.41;100258.91;108743;1260;73976;-65
2024/04/25 09:23:23;;;;;;;5.50;4.70;;;;;;;10.33;46.45;100257.13;108803;1260;61848;-66
2024/04/25 09:25:50;;;;;;;10.70;6.20;;;;;;;10.45;46.88;100255.42;108711;1259;138248;-66
2024/04/25 09:28:17;;;;;;;8.80;5.00;;;;;;;10.61;47.01;100261.48;108637;1260;77237;-66
2024/04/25 09:30:43;;;;;;;6.60;4.70;;;;;;;10.72;46.56;100259.39;108680;1259;138836;-66
2024/04/25 09:33:10;;;;;;;5.50;4.30;;;;;;;10.77;46.11;100259.82;108743;1261;73376;-66
2024/04/25 09:35:42;;;;;;;5.00;4.40;;;;;;;10.84;46.04;100250.81;108781;1259;60645;-66
2024/04/25 09:38:08;;;;;;;13.00;8.90;;;;;;;11.11;46.00;100255.42;108648;1259;138816;-66
2024/04/25 09:40:35;;;;;;;6.10;4.30;;;;;;;11.48;45.77;100248.75;108700;1260;75167;-66
2024/04/25 09:43:01;;;;;;;5.40;4.20;;;;;;;11.91;45.74;100251.41;108693;1259;138600;-66
2024/04/25 09:45:28;;;;;;;6.10;3.90;;;;;;;12.37;45.64;100246.98;108778;1260;72270;-66
2024/04/25 09:47:55;;;;;;;6.70;4.40;;;;;;;12.89;45.40;100243.53;108610;1260;138481;-66
2024/04/25 09:50:26;;;;;;;5.50;4.50;;;;;;;13.26;44.68;100243.63;108802;1260;61605;-66
2024/04/25 09:53:09;;;;;;;6.30;4.10;;;;;;;13.56;44.21;100241.16;108793;1260;76113;-66
2024/04/25 09:55:37;;;;;;;5.50;4.10;;;;;;;13.83;43.89;100239.67;108564;1260;138680;-66
2024/04/25 09:58:04;;;;;;;4.90;4.10;;;;;;;14.09;43.46;100233.05;108767;1260;73940;-66
2024/04/25 10:00:31;;;;;;;4.90;3.90;;;;;;;14.31;43.18;100236.62;108639;1260;138927;-66
2024/04/25 10:02:58;;;;;;;5.40;4.30;;;;;;;14.59;42.99;100233.14;108727;1259;61030;-66
2024/04/25 10:05:26;;;;;;;8.30;4.00;;;;;;;14.85;42.77;100227.14;108819;1260;75798;-66
2024/04/25 10:07:52;;;;;;;4.70;4.20;;;;;;;15.02;42.46;100226.23;108590;1260;138358;-66
2024/04/25 10:10:19;;;;;;;6.00;4.60;;;;;;;15.02;41.94;100232.95;108694;1260;71032;-67
2024/04/25 10:12:51;;;;;;;5.20;4.70;;;;;;;14.94;41.73;100232.42;108674;1263;138879;-66
2024/04/25 10:15:33;;;;;;;7.10;6.10;;;;;;;14.90;41.30;100237.20;108642;1260;60624;-66
2024/04/25 10:17:59;;;;;;;6.70;5.80;;;;;;;14.81;40.76;100238.09;108611;1260;138942;-66
2024/04/25 10:20:26;;;;;;;7.20;5.30;;;;;;;14.76;40.87;100236.86;108656;1260;65499;-66
2024/04/25 10:22:59;;;;;;;7.60;5.70;;;;;;;14.81;40.79;100235.61;108816;1259;73662;-66
2024/04/25 10:25:27;;;;;;;7.40;5.40;;;;;;;14.81;40.48;100235.27;108653;1260;138339;-65
2024/04/25 10:28:03;;;;;;;6.80;5.40;;;;;;;14.83;40.69;100235.45;108787;1260;60859;-66
2024/04/25 10:30:32;;;;;;;8.60;5.20;;;;;;;14.88;40.72;100234.02;108694;1260;139615;-66
2024/04/25 10:32:59;;;;;;;10.40;6.20;;;;;;;14.94;40.50;100236.48;108822;1259;67753;-66
2024/04/25 10:35:34;;;;;;;8.60;5.70;;;;;;;14.95;40.32;100235.42;108702;1259;72541;-66
2024/04/25 10:38:00;;;;;;;7.60;5.60;;;;;;;14.96;40.18;100230.48;108660;1259;140087;-66
2024/04/25 10:40:29;;;;;;;6.90;5.40;;;;;;;14.99;40.12;100227.99;108822;1259;60610;-66
2024/04/25 10:42:58;;;;;;;6.70;5.50;;;;;;;15.09;39.95;100227.64;108631;1260;139716;-66
2024/04/25 10:45:25;;;;;;;6.30;5.60;;;;;;;15.09;39.57;100224.27;108802;1260;66063;-66
2024/04/25 10:47:52;;;;;;;8.20;6.00;;;;;;;15.04;39.65;100220.76;108555;1259;140377;-66
2024/04/25 10:50:18;;;;;;;8.90;5.60;;;;;;;15.04;39.60;100215.64;108769;1260;60638;-66
2024/04/25 10:52:45;;;;;;;6.30;5.50;;;;;;;15.05;39.49;100216.67;108817;1260;60663;-66
2024/04/25 10:55:11;;;;;;;8.60;6.30;;;;;;;15.11;39.34;100222.32;108570;1260;139938;-66
2024/04/25 10:57:38;;;;;;;11.30;5.80;;;;;;;15.31;39.21;100213.26;108779;1260;66921;-66
2024/04/25 11:00:06;;;;;;;5.10;4.60;;;;;;;15.47;39.04;100216.04;108598;1260;139921;-66
2024/04/25 11:02:34;;;;;;;6.20;5.60;;;;;;;15.63;38.95;100215.27;108778;1260;60975;-66
2024/04/25 11:05:01;;;;;;;5.40;4.90;;;;;;;15.73;38.55;100216.48;108770;1260;60901;-66
2024/04/25 11:07:27;;;;;;;5.50;4.80;;;;;;;15.72;38.49;100220.36;108685;1258;140073;-66
2024/04/25 11:09:55;;;;;;;13.80;5.00;;;;;;;15.62;37.92;100220.94;108726;1260;67587;-67
2024/04/25 11:12:21;;;;;;;7.80;5.40;;;;;;;15.38;37.51;100219.08;108717;1260;138968;-66
2024/04/25 11:14:48;;;;;;;5.10;4.50;;;;;;;15.22;37.78;100221.95;108763;1260;60504;-67